createdAt,value
2018-04-18T00:01:41.573Z,96.60
2018-04-18T00:04:09.224Z,96.80
2018-04-18T00:06:36.877Z,96.60
2018-04-18T00:09:04.494Z,96.60
2018-04-18T00:11:32.124Z,96.70
2018-04-18T00:13:59.720Z,96.90
2018-04-18T00:16:27.333Z,97.10
2018-04-18T00:18:54.939Z,97.00
2018-04-18T00:21:23.206Z,97.20
2018-04-18T00:23:50.780Z,97.20
2018-04-18T00:26:18.392Z,97.20
2018-04-18T00:28:46.001Z,97.20
2018-04-18T00:31:13.636Z,97.20
2018-04-18T00:33:41.315Z,97.30
2018-04-18T00:36:08.931Z,97.60
2018-04-18T00:38:36.517Z,97.60
2018-04-18T00:41:05.064Z,97.80
2018-04-18T00:43:32.715Z,97.80
2018-04-18T00:46:00.288Z,97.70
2018-04-18T00:48:28.398Z,97.60
2018-04-18T00:50:57.518Z,98.00
2018-04-18T00:53:25.876Z,97.90
2018-04-18T00:55:53.496Z,97.90
2018-04-18T00:58:21.105Z,97.90
2018-04-18T01:00:49.475Z,97.90
2018-04-18T01:03:17.839Z,97.90
2018-04-18T01:05:45.441Z,97.80
2018-04-18T01:08:13.045Z,97.90
2018-04-18T01:10:40.645Z,98.00
2018-04-18T01:13:08.235Z,97.90
2018-04-18T01:15:35.847Z,97.70
2018-04-18T01:18:03.515Z,98.00
2018-04-18T01:20:31.119Z,98.00
2018-04-18T01:22:58.735Z,98.00
2018-04-18T01:25:26.357Z,98.10
2018-04-18T01:27:53.928Z,98.20
2018-04-18T01:30:22.002Z,98.40
2018-04-18T01:32:49.590Z,98.30
2018-04-18T01:35:18.008Z,98.00
2018-04-18T01:37:45.658Z,98.00
2018-04-18T01:40:13.268Z,98.00
2018-04-18T01:42:40.897Z,98.00
2018-04-18T01:45:08.548Z,98.00
2018-04-18T01:47:36.930Z,98.20
2018-04-18T01:50:05.323Z,98.20
2018-04-18T01:52:32.989Z,98.10
2018-04-18T01:55:00.609Z,98.30
2018-04-18T01:57:28.221Z,98.30
2018-04-18T01:59:55.926Z,98.20
2018-04-18T02:02:23.556Z,98.00
2018-04-18T02:04:51.151Z,97.90
2018-04-18T02:07:18.777Z,97.90
2018-04-18T02:09:47.137Z,98.10
2018-04-18T02:12:14.742Z,98.00
2018-04-18T02:14:42.345Z,98.10
2018-04-18T02:17:09.955Z,98.20
2018-04-18T02:19:38.306Z,98.50
2018-04-18T02:22:05.923Z,98.50
2018-04-18T02:24:33.542Z,98.30
2018-04-18T02:27:01.111Z,98.10
2018-04-18T02:29:28.750Z,98.10
2018-04-18T02:31:56.396Z,98.30
2018-04-18T02:34:24.030Z,98.10
2018-04-18T02:36:52.439Z,98.10
2018-04-18T02:39:20.069Z,98.00
2018-04-18T02:41:48.436Z,98.30
2018-04-18T02:44:16.033Z,98.30
2018-04-18T02:46:43.633Z,98.10
2018-04-18T02:49:11.269Z,98.30
2018-04-18T02:51:38.921Z,98.30
2018-04-18T02:54:06.527Z,98.30
2018-04-18T02:56:34.152Z,98.30
2018-04-18T02:59:02.565Z,98.20
2018-04-18T03:01:30.184Z,98.20
2018-04-18T03:03:57.860Z,98.40
2018-04-18T03:06:25.461Z,98.60
2018-04-18T03:08:53.081Z,98.60
2018-04-18T03:11:20.680Z,98.70
2018-04-18T03:13:48.265Z,98.70
2018-04-18T03:16:15.865Z,98.70
2018-04-18T03:18:43.458Z,98.90
2018-04-18T03:21:11.826Z,99.00
2018-04-18T03:23:39.414Z,99.40
2018-04-18T03:26:07.764Z,99.60
2018-04-18T03:28:35.833Z,99.60
2018-04-18T03:31:03.479Z,99.80
2018-04-18T03:33:31.084Z,99.90
2018-04-18T03:35:58.711Z,99.80
2018-04-18T03:38:26.288Z,99.80
2018-04-18T03:40:53.894Z,99.70
2018-04-18T03:43:22.372Z,99.90
2018-04-18T03:45:50.768Z,99.90
2018-04-18T03:48:19.186Z,99.80
2018-04-18T03:50:46.816Z,99.80
2018-04-18T03:53:15.182Z,99.90
2018-04-18T03:55:43.560Z,99.90
2018-04-18T03:58:11.924Z,99.90
2018-04-18T04:00:39.544Z,99.90
2018-04-18T04:03:07.160Z,99.90
2018-04-18T04:05:34.727Z,99.90
2018-04-18T04:08:02.295Z,99.90
2018-04-18T04:10:29.876Z,99.90
2018-04-18T04:12:58.264Z,99.90
2018-04-18T04:15:26.647Z,99.90
2018-04-18T04:18:07.077Z,99.90
2018-04-18T04:20:46.673Z,99.90
2018-04-18T04:23:26.113Z,99.90
2018-04-18T04:25:53.705Z,99.90
2018-04-18T04:28:21.307Z,99.90
2018-04-18T04:30:48.903Z,99.90
2018-04-18T04:33:16.539Z,99.90
2018-04-18T04:35:44.934Z,99.90
2018-04-18T04:38:12.566Z,99.90
2018-04-18T04:40:40.167Z,99.90
2018-04-18T04:43:08.551Z,99.90
2018-04-18T04:45:36.920Z,99.90
2018-04-18T04:48:05.305Z,99.90
2018-04-18T04:50:33.687Z,99.90
2018-04-18T04:53:02.075Z,99.90
2018-04-18T04:55:29.733Z,99.90
2018-04-18T04:57:58.966Z,99.90
2018-04-18T05:00:26.574Z,99.90
2018-04-18T05:02:54.174Z,99.90
2018-04-18T05:05:22.524Z,99.90
2018-04-18T05:07:50.223Z,99.90
2018-04-18T05:10:18.668Z,99.90
2018-04-18T05:12:46.232Z,99.90
2018-04-18T05:15:13.843Z,99.90
2018-04-18T05:17:42.195Z,99.90
2018-04-18T05:20:09.792Z,99.90
2018-04-18T05:22:37.381Z,99.90
2018-04-18T05:25:05.906Z,99.90
2018-04-18T05:27:33.470Z,99.90
2018-04-18T05:30:01.046Z,99.90
2018-04-18T05:32:28.633Z,99.90
2018-04-18T05:34:57.018Z,99.90
2018-04-18T05:37:24.750Z,99.90
2018-04-18T05:39:52.311Z,99.90
2018-04-18T05:42:19.926Z,99.90
2018-04-18T05:44:48.332Z,99.90
2018-04-18T05:47:15.930Z,99.90
2018-04-18T05:49:43.533Z,99.90
2018-04-18T05:52:11.871Z,99.90
2018-04-18T05:54:39.491Z,99.90
2018-04-18T05:57:07.071Z,99.90
2018-04-18T05:59:34.669Z,99.90
2018-04-18T06:02:02.244Z,99.90
2018-04-18T06:04:30.614Z,99.90
2018-04-18T06:06:58.208Z,99.90
2018-04-18T06:09:25.808Z,99.90
2018-04-18T06:11:54.168Z,99.90
2018-04-18T06:14:22.515Z,99.90
2018-04-18T06:16:50.102Z,99.90
2018-04-18T06:19:17.764Z,99.90
2018-04-18T06:21:45.364Z,99.90
2018-04-18T06:24:13.719Z,99.90
2018-04-18T06:26:41.377Z,99.90
2018-04-18T06:29:08.942Z,99.80
2018-04-18T06:31:36.573Z,99.80
2018-04-18T06:34:05.291Z,99.70
2018-04-18T06:36:33.656Z,99.30
2018-04-18T06:39:01.245Z,99.20
2018-04-18T06:41:28.846Z,99.10
2018-04-18T06:43:57.188Z,98.50
2018-04-18T06:46:24.773Z,98.50
2018-04-18T06:48:52.419Z,98.20
2018-04-18T06:51:20.055Z,97.80
2018-04-18T06:53:47.662Z,97.70
2018-04-18T06:56:15.253Z,98.00
2018-04-18T06:58:43.587Z,97.70
2018-04-18T07:01:11.226Z,97.70
2018-04-18T07:03:38.905Z,97.70
2018-04-18T07:06:06.524Z,97.60
2018-04-18T07:08:34.094Z,96.70
2018-04-18T07:11:02.450Z,96.40
2018-04-18T07:13:30.056Z,96.70
2018-04-18T07:15:58.476Z,95.50
2018-04-18T07:18:26.074Z,95.50
2018-04-18T07:20:53.755Z,95.70
2018-04-18T07:23:21.345Z,95.60
2018-04-18T07:25:48.964Z,94.90
2018-04-18T07:28:16.570Z,94.90
2018-04-18T07:30:44.936Z,94.40
2018-04-18T07:33:13.339Z,93.50
2018-04-18T07:35:40.946Z,93.40
2018-04-18T07:38:08.510Z,93.10
2018-04-18T07:40:36.117Z,92.70
2018-04-18T07:43:04.491Z,92.60
2018-04-18T07:45:32.091Z,92.60
2018-04-18T07:47:59.716Z,92.60
2018-04-18T07:50:27.355Z,92.40
2018-04-18T07:52:55.260Z,92.50
2018-04-18T07:55:23.073Z,92.70
2018-04-18T07:57:50.738Z,92.80
2018-04-18T08:00:18.332Z,93.00
2018-04-18T08:02:46.444Z,92.50
2018-04-18T08:05:15.058Z,91.70
2018-04-18T08:07:42.766Z,91.80
2018-04-18T08:10:10.456Z,91.70
2018-04-18T08:12:38.345Z,91.80
2018-04-18T08:15:06.017Z,91.90
2018-04-18T08:17:33.647Z,91.20
2018-04-18T08:20:01.313Z,90.80
2018-04-18T08:22:29.039Z,90.30
2018-04-18T08:24:56.724Z,88.50
2018-04-18T08:27:24.297Z,89.60
2018-04-18T08:29:51.907Z,88.80
2018-04-18T08:32:19.509Z,89.40
2018-04-18T08:34:47.165Z,88.70
2018-04-18T08:37:14.793Z,86.60
2018-04-18T08:39:42.416Z,87.40
2018-04-18T08:42:10.062Z,87.70
2018-04-18T08:44:37.627Z,85.50
2018-04-18T08:47:05.254Z,83.80
2018-04-18T08:49:32.997Z,84.50
2018-04-18T08:52:00.588Z,84.30
2018-04-18T08:54:28.209Z,82.80
2018-04-18T08:56:55.813Z,81.50
2018-04-18T08:59:23.542Z,82.90
2018-04-18T09:01:51.202Z,81.70
2018-04-18T09:04:18.868Z,80.90
2018-04-18T09:06:46.493Z,81.20
2018-04-18T09:09:14.121Z,79.20
2018-04-18T09:11:45.899Z,77.00
2018-04-18T09:14:13.601Z,78.70
2018-04-18T09:16:42.063Z,77.60
2018-04-18T09:19:11.098Z,77.70
2018-04-18T09:21:38.843Z,77.60
2018-04-18T09:24:07.224Z,76.90
2018-04-18T09:26:34.904Z,76.80
2018-04-18T09:29:02.614Z,75.50
2018-04-18T09:31:30.302Z,74.90
2018-04-18T09:33:58.095Z,74.80
2018-04-18T09:36:25.796Z,74.50
2018-04-18T09:38:53.452Z,74.20
2018-04-18T09:41:21.850Z,72.10
2018-04-18T09:43:49.670Z,69.90
2018-04-18T09:46:19.364Z,72.30
2018-04-18T09:48:47.070Z,72.10
2018-04-18T09:51:15.540Z,72.30
2018-04-18T09:53:44.729Z,70.80
2018-04-18T09:56:12.345Z,70.80
2018-04-18T09:58:39.954Z,70.30
2018-04-18T10:01:08.601Z,71.00
2018-04-18T10:03:36.232Z,71.70
2018-04-18T10:06:04.880Z,72.00
2018-04-18T10:08:32.617Z,72.00
2018-04-18T10:11:00.476Z,69.10
2018-04-18T10:13:28.897Z,66.40
2018-04-18T10:15:56.661Z,66.30
2018-04-18T10:18:32.851Z,65.10
2018-04-18T10:21:00.789Z,65.60
2018-04-18T10:23:29.291Z,65.60
2018-04-18T10:25:58.704Z,64.90
2018-04-18T10:28:26.489Z,62.80
2018-04-18T10:30:54.209Z,63.30
2018-04-18T10:33:22.909Z,59.30
2018-04-18T10:35:50.635Z,59.20
2018-04-18T10:38:18.327Z,59.50
2018-04-18T10:40:46.295Z,57.20
2018-04-18T10:43:14.047Z,58.90
2018-04-18T10:45:41.806Z,58.90
2018-04-18T10:48:09.555Z,59.30
2018-04-18T10:50:37.274Z,57.60
2018-04-18T10:53:04.989Z,58.10
2018-04-18T10:55:33.243Z,57.70
2018-04-18T10:58:01.021Z,58.00
2018-04-18T11:00:28.762Z,58.20
2018-04-18T11:02:58.608Z,58.50
2018-04-18T11:05:26.993Z,57.20
2018-04-18T11:07:54.650Z,57.10
2018-04-18T11:10:22.358Z,55.40
2018-04-18T11:12:50.562Z,55.50
2018-04-18T11:15:18.924Z,55.00
2018-04-18T11:17:55.388Z,55.00
2018-04-18T11:20:23.864Z,55.30
2018-04-18T11:22:52.806Z,54.50
2018-04-18T11:25:20.688Z,55.30
2018-04-18T11:27:49.178Z,56.10
2018-04-18T11:30:16.798Z,56.00
2018-04-18T11:32:44.482Z,53.70
2018-04-18T11:35:12.139Z,52.40
2018-04-18T11:37:40.815Z,53.90
2018-04-18T11:40:08.506Z,54.20
2018-04-18T11:42:36.227Z,54.50
2018-04-18T11:45:03.964Z,53.90
2018-04-18T11:47:31.754Z,52.00
2018-04-18T11:49:59.555Z,54.50
2018-04-18T11:52:27.511Z,53.00
2018-04-18T11:54:55.270Z,51.40
2018-04-18T11:57:22.874Z,50.50
2018-04-18T11:59:51.259Z,50.80
2018-04-18T12:02:19.675Z,49.80
2018-04-18T12:04:47.284Z,49.60
2018-04-18T12:07:19.397Z,52.10
2018-04-18T12:09:47.143Z,51.70
2018-04-18T12:12:15.903Z,51.40
2018-04-18T12:14:44.285Z,51.50
2018-04-18T12:17:12.196Z,51.00
2018-04-18T12:19:39.819Z,49.90
2018-04-18T12:22:07.423Z,51.00
2018-04-18T12:24:35.797Z,50.00
2018-04-18T12:27:04.237Z,49.60
2018-04-18T12:29:32.157Z,49.00
2018-04-18T12:32:00.579Z,47.70
2018-04-18T12:34:28.381Z,47.60
2018-04-18T12:36:56.385Z,49.40
2018-04-18T12:39:25.221Z,47.40
2018-04-18T12:41:55.972Z,47.90
2018-04-18T12:44:24.825Z,48.30
2018-04-18T12:46:53.359Z,46.10
2018-04-18T12:49:21.979Z,46.00
2018-04-18T12:51:49.705Z,47.00
2018-04-18T12:54:17.403Z,47.00
2018-04-18T12:56:47.529Z,47.60
2018-04-18T12:59:15.985Z,47.50
2018-04-18T13:01:43.715Z,45.70
2018-04-18T13:04:12.533Z,44.80
2018-04-18T13:06:40.179Z,45.80
2018-04-18T13:09:07.819Z,45.60
2018-04-18T13:11:36.947Z,46.50
2018-04-18T13:14:04.619Z,45.00
2018-04-18T13:16:33.484Z,45.20
2018-04-18T13:19:03.700Z,45.70
2018-04-18T13:21:33.622Z,46.10
2018-04-18T13:24:02.608Z,46.20
2018-04-18T13:26:31.440Z,46.10
2018-04-18T13:29:00.321Z,43.80
2018-04-18T13:31:28.534Z,44.00
2018-04-18T13:33:56.914Z,43.50
2018-04-18T13:36:25.468Z,43.40
2018-04-18T13:38:54.084Z,43.50
2018-04-18T13:41:21.680Z,45.10
2018-04-18T13:43:49.409Z,46.00
2018-04-18T13:46:18.155Z,45.80
2018-04-18T13:48:46.782Z,45.20
2018-04-18T13:51:14.581Z,44.20
2018-04-18T13:53:43.002Z,42.60
2018-04-18T13:56:10.749Z,43.40
2018-04-18T13:58:38.565Z,44.10
2018-04-18T14:01:06.320Z,43.00
2018-04-18T14:03:34.086Z,43.20
2018-04-18T14:06:04.471Z,41.90
2018-04-18T14:08:32.140Z,41.80
2018-04-18T14:11:01.232Z,44.20
2018-04-18T14:13:29.219Z,43.30
2018-04-18T14:15:57.020Z,41.30
2018-04-18T14:18:25.682Z,42.00
2018-04-18T14:20:54.667Z,41.20
2018-04-18T14:23:22.375Z,39.80
2018-04-18T14:25:51.008Z,41.20
2018-04-18T14:28:19.193Z,41.10
2018-04-18T14:30:47.700Z,43.20
2018-04-18T14:33:16.274Z,40.00
2018-04-18T14:35:45.681Z,39.90
2018-04-18T14:38:13.340Z,40.90
2018-04-18T14:40:41.796Z,40.90
2018-04-18T14:43:10.366Z,41.20
2018-04-18T14:45:38.152Z,41.70
2018-04-18T14:48:07.791Z,39.00
2018-04-18T14:50:35.547Z,38.70
2018-04-18T14:53:03.411Z,40.10
2018-04-18T14:55:31.446Z,40.50
2018-04-18T14:57:59.434Z,39.70
2018-04-18T15:00:27.399Z,40.00
2018-04-18T15:02:57.062Z,39.20
2018-04-18T15:05:26.737Z,38.30
2018-04-18T15:07:55.851Z,40.80
2018-04-18T15:10:26.551Z,40.60
2018-04-18T15:12:56.548Z,40.00
2018-04-18T15:15:24.463Z,37.00
2018-04-18T15:17:52.613Z,38.20
2018-04-18T15:20:20.366Z,38.50
2018-04-18T15:22:50.053Z,37.30
2018-04-18T15:25:18.017Z,37.30
2018-04-18T15:27:52.956Z,39.50
2018-04-18T15:30:20.774Z,38.70
2018-04-18T15:32:49.596Z,37.60
2018-04-18T15:35:17.987Z,38.20
2018-04-18T15:37:51.648Z,38.30
2018-04-18T15:40:20.983Z,38.00
2018-04-18T15:42:50.118Z,38.10
2018-04-18T15:45:18.512Z,36.50
2018-04-18T15:47:48.359Z,36.60
2018-04-18T15:50:16.311Z,36.50
2018-04-18T15:52:44.981Z,36.20
2018-04-18T15:55:14.191Z,35.90
2018-04-18T15:57:42.732Z,36.80
2018-04-18T16:00:10.553Z,37.10
2018-04-18T16:02:38.498Z,37.40
2018-04-18T16:05:07.549Z,36.60
2018-04-18T16:07:35.454Z,35.60
2018-04-18T16:10:03.510Z,36.00
2018-04-18T16:12:31.345Z,35.90
2018-04-18T16:14:59.358Z,35.20
2018-04-18T16:17:27.901Z,35.50
2018-04-18T16:19:58.466Z,37.00
2018-04-18T16:22:27.977Z,36.90
2018-04-18T16:24:56.508Z,36.20
2018-04-18T16:27:24.324Z,36.10
2018-04-18T16:29:52.542Z,36.50
2018-04-18T16:32:20.392Z,37.70
2018-04-18T16:34:48.138Z,39.70
2018-04-18T16:37:15.990Z,40.20
2018-04-18T16:39:43.660Z,39.80
2018-04-18T16:42:11.387Z,39.40
2018-04-18T16:44:39.055Z,40.90
2018-04-18T16:47:06.732Z,41.70
2018-04-18T16:49:34.367Z,42.90
2018-04-18T16:52:02.005Z,42.70
2018-04-18T16:54:29.786Z,43.90
2018-04-18T16:56:57.595Z,44.50
2018-04-18T16:59:25.640Z,44.50
2018-04-18T17:01:53.419Z,45.00
2018-04-18T17:04:21.188Z,44.20
2018-04-18T17:06:49.966Z,44.80
2018-04-18T17:09:17.635Z,44.40
2018-04-18T17:11:46.167Z,47.10
2018-04-18T17:14:13.998Z,46.50
2018-04-18T17:16:42.443Z,46.20
2018-04-18T17:19:10.096Z,46.30
2018-04-18T17:21:37.804Z,46.20
2018-04-18T17:24:05.505Z,45.90
2018-04-18T17:26:33.902Z,48.70
2018-04-18T17:29:02.381Z,49.80
2018-04-18T17:31:30.096Z,49.70
2018-04-18T17:33:57.901Z,50.40
2018-04-18T17:36:27.134Z,52.20
2018-04-18T17:38:55.728Z,52.30
2018-04-18T17:41:23.383Z,52.90
2018-04-18T17:43:51.123Z,52.90
2018-04-18T17:46:18.853Z,53.30
2018-04-18T17:48:47.573Z,53.60
2018-04-18T17:51:15.377Z,54.50
2018-04-18T17:53:43.058Z,55.10
2018-04-18T17:56:10.811Z,55.20
2018-04-18T17:58:38.551Z,55.40
2018-04-18T18:01:06.297Z,55.40
2018-04-18T18:03:35.361Z,56.10
2018-04-18T18:06:04.012Z,56.10
2018-04-18T18:08:31.734Z,56.50
2018-04-18T18:10:59.408Z,56.90
2018-04-18T18:13:27.141Z,57.40
2018-04-18T18:15:55.515Z,58.10
2018-04-18T18:18:23.967Z,58.90
2018-04-18T18:20:52.632Z,60.20
2018-04-18T18:23:20.368Z,60.20
2018-04-18T18:25:48.969Z,59.60
2018-04-18T18:28:16.689Z,61.40
2018-04-18T18:30:44.455Z,62.20
2018-04-18T18:33:12.182Z,63.00
2018-04-18T18:35:40.347Z,63.90
2018-04-18T18:38:07.978Z,64.60
2018-04-18T18:40:36.430Z,66.10
2018-04-18T18:43:04.112Z,66.10
2018-04-18T18:45:31.938Z,66.10
2018-04-18T18:47:59.606Z,66.30
2018-04-18T18:50:27.296Z,67.90
2018-04-18T18:52:55.632Z,68.00
2018-04-18T18:55:23.362Z,69.00
2018-04-18T18:57:51.023Z,68.90
2018-04-18T19:00:18.693Z,68.90
2018-04-18T19:02:46.355Z,69.00
2018-04-18T19:05:14.058Z,70.00
2018-04-18T19:07:42.511Z,69.50
2018-04-18T19:10:10.172Z,69.40
2018-04-18T19:12:37.880Z,70.20
2018-04-18T19:15:05.664Z,71.80
2018-04-18T19:17:33.368Z,70.60
2018-04-18T19:20:01.070Z,70.30
2018-04-18T19:22:28.865Z,69.40
2018-04-18T19:24:57.200Z,70.50
2018-04-18T19:27:24.885Z,69.70
2018-04-18T19:29:52.598Z,69.00
2018-04-18T19:32:20.320Z,69.70
2018-04-18T19:34:48.747Z,69.70
2018-04-18T19:37:16.390Z,69.70
2018-04-18T19:39:44.817Z,69.20
2018-04-18T19:42:12.492Z,69.20
2018-04-18T19:44:40.092Z,69.70
2018-04-18T19:47:07.831Z,69.40
2018-04-18T19:49:35.466Z,69.80
2018-04-18T19:52:03.084Z,69.20
2018-04-18T19:54:30.713Z,69.10
2018-04-18T19:56:58.417Z,69.20
2018-04-18T19:59:26.787Z,69.30
2018-04-18T20:01:54.380Z,69.80
2018-04-18T20:04:22.111Z,69.70
2018-04-18T20:06:49.790Z,69.70
2018-04-18T20:09:17.473Z,70.00
2018-04-18T20:11:45.103Z,70.30
2018-04-18T20:14:12.784Z,70.00
2018-04-18T20:16:40.397Z,69.70
2018-04-18T20:19:08.786Z,70.00
2018-04-18T20:21:37.207Z,69.60
2018-04-18T20:24:04.951Z,69.60
2018-04-18T20:26:32.670Z,69.40
2018-04-18T20:29:01.226Z,70.00
2018-04-18T20:31:28.844Z,69.90
2018-04-18T20:33:56.534Z,69.90
2018-04-18T20:36:25.132Z,69.80
2018-04-18T20:38:52.779Z,71.10
2018-04-18T20:41:20.430Z,69.90
2018-04-18T20:43:48.992Z,69.70
2018-04-18T20:46:16.775Z,69.70
2018-04-18T20:48:45.220Z,69.30
2018-04-18T20:51:13.661Z,69.30
2018-04-18T20:53:41.292Z,70.00
2018-04-18T20:56:09.060Z,69.60
2018-04-18T20:58:36.766Z,69.40
2018-04-18T21:01:04.549Z,69.50
2018-04-18T21:03:32.976Z,69.50
2018-04-18T21:06:00.635Z,69.20
2018-04-18T21:08:28.306Z,69.50
2018-04-18T21:10:56.035Z,69.20
2018-04-18T21:13:23.825Z,69.30
2018-04-18T21:15:51.494Z,69.20
2018-04-18T21:18:19.214Z,69.40
2018-04-18T21:20:47.784Z,69.40
2018-04-18T21:23:16.389Z,69.70
2018-04-18T21:25:44.078Z,69.50
2018-04-18T21:28:11.731Z,69.40
2018-04-18T21:30:40.130Z,69.40
2018-04-18T21:33:07.895Z,69.30
2018-04-18T21:35:36.328Z,70.10
2018-04-18T21:38:03.984Z,70.00
2018-04-18T21:40:31.572Z,70.20
2018-04-18T21:42:59.212Z,69.90
2018-04-18T21:45:27.591Z,70.10
2018-04-18T21:47:55.663Z,69.70
2018-04-18T21:50:23.295Z,70.40
2018-04-18T21:52:51.667Z,70.70
2018-04-18T21:55:19.264Z,70.70
2018-04-18T21:57:46.873Z,70.20
2018-04-18T22:00:14.483Z,71.00
2018-04-18T22:02:42.865Z,70.70
2018-04-18T22:05:11.245Z,71.80
2018-04-18T22:07:39.621Z,71.20
2018-04-18T22:10:08.925Z,71.20
2018-04-18T22:12:37.297Z,71.60
2018-04-18T22:15:04.947Z,71.60
2018-04-18T22:17:32.680Z,70.50
2018-04-18T22:20:00.337Z,71.60
2018-04-18T22:22:27.951Z,70.70
2018-04-18T22:24:55.543Z,71.00
2018-04-18T22:27:23.615Z,70.30
2018-04-18T22:29:52.024Z,70.30
2018-04-18T22:32:19.713Z,70.30
2018-04-18T22:34:47.341Z,70.50
2018-04-18T22:37:15.689Z,70.80
2018-04-18T22:39:43.319Z,70.80
2018-04-18T22:42:10.920Z,70.80
2018-04-18T22:44:38.548Z,71.00
2018-04-18T22:47:06.198Z,70.90
2018-04-18T22:49:34.596Z,71.20
2018-04-18T22:52:02.354Z,71.20
2018-04-18T22:54:31.406Z,71.70
2018-04-18T22:56:59.053Z,71.70
2018-04-18T22:59:27.285Z,71.50
2018-04-18T23:01:55.670Z,71.70
2018-04-18T23:04:24.057Z,71.20
2018-04-18T23:06:53.230Z,71.70
2018-04-18T23:09:20.827Z,71.70
2018-04-18T23:11:48.464Z,71.40
2018-04-18T23:14:16.902Z,71.70
2018-04-18T23:16:44.658Z,71.70
2018-04-18T23:19:12.622Z,72.50
2018-04-18T23:21:40.392Z,72.00
2018-04-18T23:24:08.283Z,72.70
2018-04-18T23:26:35.950Z,71.90
2018-04-18T23:29:03.547Z,72.40
2018-04-18T23:31:31.153Z,72.70
2018-04-18T23:33:58.782Z,72.40
2018-04-18T23:36:26.376Z,72.00
2018-04-18T23:38:54.952Z,72.60
2018-04-18T23:41:22.625Z,72.60
2018-04-18T23:43:51.002Z,73.00
2018-04-18T23:46:19.372Z,73.40
2018-04-18T23:48:46.984Z,73.30
2018-04-18T23:51:14.626Z,73.20
2018-04-18T23:53:42.210Z,73.30
2018-04-18T23:56:09.804Z,73.30
2018-04-18T23:58:37.480Z,73.90
